Time;durP1;ratioP1;P1;durP2;ratioP2;P2;SDS_P1;SDS_P2;PMS_P1;PMS_P2;Temp;Humidity;BMP_temperature;BMP_pressure;BME280_temperature;BME280_humidity;BME280_pressure;Samples;Min_cycle;Max_cycle;Signal;HPM_P1;HPM_P2
2023/09/19 00:01:11;;;;;;;10.53;7.37;;;;;;;8.17;100.00;101660.16;5051482;28;20021;-71
2023/09/19 00:03:37;;;;;;;13.47;7.57;;;;;;;8.09;100.00;101650.16;5051506;28;20040;-70
2023/09/19 00:06:15;;;;;;;10.90;7.67;;;;;;;8.01;100.00;101641.97;5054112;28;20032;-70
2023/09/19 00:08:44;;;;;;;10.98;7.47;;;;;;;8.22;100.00;101680.03;5055669;28;20033;-72
2023/09/19 00:11:10;;;;;;;12.77;7.03;;;;;;;7.83;100.00;101614.31;5055643;28;20033;-70
2023/09/19 00:13:36;;;;;;;9.47;7.13;;;;;;;8.03;100.00;101654.16;5055322;28;20127;-70
2023/09/19 00:16:10;;;;;;;9.70;6.23;;;;;;;8.04;100.00;101652.34;5055485;28;20028;-70
2023/09/19 00:18:37;;;;;;;13.50;7.33;;;;;;;8.00;100.00;101654.41;5055715;28;20048;-71
2023/09/19 00:21:04;;;;;;;9.30;6.43;;;;;;;8.01;100.00;101655.25;5055293;28;20060;-70
2023/09/19 00:23:31;;;;;;;12.23;6.17;;;;;;;8.00;100.00;101645.59;5055177;28;20028;-71
2023/09/19 00:26:00;;;;;;;10.40;6.20;;;;;;;8.13;100.00;101659.56;5055290;28;20067;-71
2023/09/19 00:28:27;;;;;;;8.37;6.77;;;;;;;8.12;100.00;101651.75;5055075;28;20048;-69
2023/09/19 00:30:55;;;;;;;8.50;6.30;;;;;;;8.13;100.00;101664.88;5054917;28;20032;-72
2023/09/19 00:33:22;;;;;;;10.80;6.93;;;;;;;7.99;100.00;101638.63;5055377;28;20040;-70
2023/09/19 00:35:51;;;;;;;8.20;5.90;;;;;;;8.08;100.00;101659.91;5055272;28;20060;-70
2023/09/19 00:38:21;;;;;;;12.57;6.97;;;;;;;7.97;100.00;101645.84;5054988;28;20021;-72
2023/09/19 00:40:47;;;;;;;10.27;6.90;;;;;;;7.93;100.00;101641.78;5054956;28;20144;-70
2023/09/19 00:43:13;;;;;;;8.90;5.87;;;;;;;7.76;100.00;101616.59;5054574;28;20024;-72
2023/09/19 00:45:43;;;;;;;9.27;6.47;;;;;;;7.92;100.00;101650.69;5053472;28;20104;-70
2023/09/19 00:48:09;;;;;;;9.10;5.70;;;;;;;7.78;100.00;101623.47;5055496;28;20067;-72
2023/09/19 00:50:35;;;;;;;9.00;6.10;;;;;;;7.77;100.00;101635.03;5064986;28;20025;-70
2023/09/19 00:53:09;;;;;;;10.83;5.83;;;;;;;7.84;100.00;101642.53;5065156;28;20033;-71
2023/09/19 00:55:37;;;;;;;11.23;7.73;;;;;;;7.51;100.00;101585.91;5054819;28;20065;-71
2023/09/19 00:58:06;;;;;;;9.53;6.50;;;;;;;7.67;100.00;101617.34;5054988;28;20029;-69
2023/09/19 01:00:33;;;;;;;;;;;;;;;7.89;100.00;101641.19;5054975;28;20456;-70
2023/09/19 01:03:01;;;;;;;11.18;6.95;;;;;;;7.82;100.00;101624.09;5054413;28;19909;-69
2023/09/19 01:05:28;;;;;;;11.70;6.90;;;;;;;7.71;100.00;101616.97;5054443;28;20064;-70
2023/09/19 01:07:53;;;;;;;17.67;8.10;;;;;;;7.77;100.00;101629.72;5054318;28;20066;-71
2023/09/19 01:10:20;;;;;;;10.60;7.07;;;;;;;7.69;100.00;101626.84;5054202;28;20443;-71
2023/09/19 01:13:10;;;;;;;9.33;7.37;;;;;;;7.33;100.00;101556.44;5054080;28;20032;-71
2023/09/19 01:15:42;;;;;;;18.50;7.03;;;;;;;7.50;100.00;101592.16;5054218;28;20475;-70
2023/09/19 01:18:37;;;;;;;12.57;7.90;;;;;;;7.64;100.00;101612.28;5052862;28;20032;-71
2023/09/19 01:21:15;;;;;;;11.43;6.97;;;;;;;7.26;100.00;101542.00;5054240;28;20032;-71
2023/09/19 01:24:36;;;;;;;10.30;6.97;;;;;;;7.58;100.00;101588.94;5054206;28;20068;-72
2023/09/19 01:27:19;;;;;;;10.30;7.40;;;;;;;7.58;100.00;101589.78;5038119;28;20428;-71
2023/09/19 01:29:49;;;;;;;11.13;6.17;;;;;;;7.55;100.00;101579.41;5054173;28;20535;-70
2023/09/19 01:32:21;;;;;;;8.60;6.00;;;;;;;7.26;100.00;101526.09;5053715;28;20370;-71
2023/09/19 01:34:53;;;;;;;8.67;6.63;;;;;;;7.55;100.00;101575.94;5054103;28;20520;-71
2023/09/19 01:37:25;;;;;;;9.60;7.23;;;;;;;7.37;100.00;101541.13;5052433;28;20362;-72
2023/09/19 01:39:58;;;;;;;8.40;6.60;;;;;;;7.49;100.00;101556.03;5052912;28;20024;-71
2023/09/19 01:42:23;;;;;;;11.27;6.07;;;;;;;7.52;100.00;101554.94;5054445;28;20024;-71
2023/09/19 01:45:07;;;;;;;12.03;6.47;;;;;;;7.51;100.00;101551.44;5052848;28;20530;-70
2023/09/19 01:47:43;;;;;;;8.40;5.33;;;;;;;7.47;100.00;101545.56;5054431;28;20067;-70
2023/09/19 01:50:21;;;;;;;8.40;6.40;;;;;;;7.42;100.00;101538.94;5053790;28;20029;-71
2023/09/19 01:52:54;;;;;;;8.57;5.93;;;;;;;7.36;100.00;101532.34;5053562;28;20474;-70
2023/09/19 01:55:22;;;;;;;7.60;6.50;;;;;;;7.32;100.00;101519.47;5053671;28;20033;-71
2023/09/19 01:57:47;;;;;;;10.07;6.40;;;;;;;7.43;100.00;101538.81;5053579;28;20111;-70
2023/09/19 02:00:14;;;;;;;10.53;6.00;;;;;;;7.35;100.00;101508.59;5053387;28;20296;-71
2023/09/19 02:02:46;;;;;;;10.77;5.57;;;;;;;7.34;100.00;101506.94;5053405;28;20128;-71
2023/09/19 02:05:12;;;;;;;8.67;5.47;;;;;;;7.25;100.00;101494.44;5052302;28;20379;-71
2023/09/19 02:07:39;;;;;;;11.63;6.37;;;;;;;7.37;100.00;101507.50;5052235;28;20025;-71
2023/09/19 02:10:06;;;;;;;9.53;6.13;;;;;;;7.44;100.00;101513.16;5051744;28;20032;-70
2023/09/19 02:12:35;;;;;;;10.82;5.75;;;;;;;7.26;100.00;101482.88;5052992;28;20495;-70
2023/09/19 02:15:01;;;;;;;10.03;5.93;;;;;;;7.45;100.00;101501.59;5053357;28;20079;-71
2023/09/19 02:17:31;;;;;;;7.55;5.68;;;;;;;7.46;100.00;101501.47;5053446;28;20317;-70
2023/09/19 02:19:56;;;;;;;11.93;6.93;;;;;;;7.56;100.00;101503.38;5053233;28;20033;-70
2023/09/19 02:22:22;;;;;;;15.73;6.90;;;;;;;7.57;100.00;101502.41;5052910;28;20035;-72
2023/09/19 02:24:48;;;;;;;8.70;5.60;;;;;;;7.56;100.00;101490.13;5052908;28;20405;-71
2023/09/19 02:27:16;;;;;;;13.70;4.83;;;;;;;7.46;100.00;101471.47;5051352;28;20029;-70
2023/09/19 02:29:42;;;;;;;6.67;5.37;;;;;;;7.30;100.00;101436.59;5051541;28;20063;-70
2023/09/19 02:32:10;;;;;;;7.77;6.17;;;;;;;7.52;100.00;101468.34;5051575;28;20088;-71
2023/09/19 02:34:36;;;;;;;6.97;5.00;;;;;;;7.45;100.00;101456.53;5051618;28;20048;-72
2023/09/19 02:37:04;;;;;;;11.90;4.93;;;;;;;7.31;100.00;101433.81;5052511;28;20040;-70
2023/09/19 02:39:33;;;;;;;9.70;5.50;;;;;;;7.33;100.00;101444.31;5052554;28;20127;-71
2023/09/19 02:41:59;;;;;;;;;;;;;;;7.45;100.00;101449.44;5052830;28;20118;-71
2023/09/19 02:44:24;;;;;;;7.00;5.10;;;;;;;7.39;100.00;101441.13;5052740;28;20074;-71
2023/09/19 02:46:50;;;;;;;8.57;5.10;;;;;;;7.38;100.00;101437.66;5052789;28;20483;-70
2023/09/19 02:49:17;;;;;;;7.33;4.93;;;;;;;7.36;100.00;101421.03;5052360;28;20478;-71
2023/09/19 02:51:43;;;;;;;6.67;4.80;;;;;;;7.31;100.00;101403.84;5052352;28;20025;-70
2023/09/19 02:54:09;;;;;;;5.60;5.00;;;;;;;7.40;100.00;101421.63;5052225;28;20032;-70
2023/09/19 02:56:35;;;;;;;6.60;5.00;;;;;;;7.29;100.00;101397.81;5052068;28;20044;-71
2023/09/19 02:59:01;;;;;;;5.43;4.80;;;;;;;7.18;100.00;101380.13;5052670;28;20036;-71
2023/09/19 03:01:28;;;;;;;8.10;5.40;;;;;;;7.37;100.00;101413.94;5052538;28;20120;-71
2023/09/19 03:03:54;;;;;;;6.50;4.60;;;;;;;7.28;100.00;101391.69;5051121;28;20025;-70
2023/09/19 03:06:21;;;;;;;8.43;4.97;;;;;;;7.12;100.00;101370.91;5052275;28;20461;-72
2023/09/19 03:08:49;;;;;;;6.77;5.10;;;;;;;7.38;100.00;101391.75;5051805;28;20465;-68
2023/09/19 03:11:18;;;;;;;5.57;4.22;;;;;;;7.18;100.00;101355.47;5053018;28;20074;-72
2023/09/19 03:13:44;;;;;;;5.67;3.97;;;;;;;7.42;100.00;101386.06;5052727;28;20040;-72
2023/09/19 03:16:10;;;;;;;4.67;3.87;;;;;;;7.49;100.00;101398.81;5054622;28;20039;-71
2023/09/19 03:18:36;;;;;;;5.87;3.83;;;;;;;7.54;100.00;101391.34;5052790;28;20044;-70
2023/09/19 03:21:02;;;;;;;5.17;3.40;;;;;;;7.56;100.00;101368.19;5050847;28;20044;-70
2023/09/19 03:23:28;;;;;;;4.73;3.50;;;;;;;7.74;100.00;101380.75;5051918;28;20033;-71
2023/09/19 03:25:55;;;;;;;6.23;3.37;;;;;;;7.86;100.00;101380.69;5051827;28;20037;-71
2023/09/19 03:28:22;;;;;;;4.90;3.23;;;;;;;7.72;100.00;101353.50;5052209;28;20025;-71
2023/09/19 03:31:06;;;;;;;5.20;3.20;;;;;;;7.72;100.00;101331.47;5051798;28;20098;-71
2023/09/19 03:33:35;;;;;;;3.67;3.37;;;;;;;7.88;100.00;101338.97;5052341;28;20097;-71
2023/09/19 03:36:04;;;;;;;6.57;3.30;;;;;;;8.06;100.00;101354.13;5050643;28;20036;-71
2023/09/19 03:38:31;;;;;;;6.63;2.97;;;;;;;8.09;100.00;101353.03;5050862;28;20029;-70
2023/09/19 03:40:57;;;;;;;4.60;3.13;;;;;;;8.04;100.00;101331.34;5054490;28;20299;-71
2023/09/19 03:43:22;;;;;;;3.73;3.43;;;;;;;7.84;100.00;101297.78;5055771;28;20032;-70
2023/09/19 03:45:48;;;;;;;4.57;3.67;;;;;;;7.62;100.00;101259.00;5054794;28;20032;-71
2023/09/19 03:48:14;;;;;;;3.53;2.93;;;;;;;8.10;100.00;101325.53;5054759;28;20028;-71
2023/09/19 03:50:40;;;;;;;5.33;3.30;;;;;;;8.12;100.00;101306.84;5058275;28;20040;-70
2023/09/19 03:53:07;;;;;;;3.60;3.30;;;;;;;8.21;100.00;101311.34;5069825;28;20053;-71
2023/09/19 03:55:35;;;;;;;6.43;3.00;;;;;;;8.17;100.00;101299.31;5074808;28;20080;-70
2023/09/19 03:58:02;;;;;;;6.00;3.22;;;;;;;8.27;100.00;101293.06;5076691;28;20028;-70
2023/09/19 04:00:29;;;;;;;4.87;3.20;;;;;;;8.32;100.00;101288.19;5073476;28;20032;-72
2023/09/19 04:02:56;;;;;;;4.13;3.00;;;;;;;8.24;100.00;101258.00;5057181;28;20029;-73
2023/09/19 04:05:22;;;;;;;3.90;2.83;;;;;;;8.46;100.00;101279.03;5074540;28;20096;-72
2023/09/19 04:07:48;;;;;;;3.40;2.67;;;;;;;8.40;100.00;101257.53;5075672;28;20021;-70
2023/09/19 04:10:14;;;;;;;4.73;2.30;;;;;;;8.58;100.00;101271.78;5076347;28;20040;-72
2023/09/19 04:12:40;;;;;;;4.10;2.80;;;;;;;8.61;100.00;101271.50;5071459;28;20028;-71
2023/09/19 04:15:07;;;;;;;3.50;2.60;;;;;;;8.51;100.00;101249.44;5065807;28;20037;-72
2023/09/19 04:17:33;;;;;;;3.13;2.73;;;;;;;8.00;100.00;101154.88;5061452;28;20072;-70
2023/09/19 04:19:59;;;;;;;2.70;2.40;;;;;;;8.66;100.00;101253.34;5056193;28;20372;-71
2023/09/19 04:22:25;;;;;;;5.33;2.40;;;;;;;8.54;100.00;101227.91;5067144;28;20044;-72
2023/09/19 04:24:50;;;;;;;4.33;2.53;;;;;;;8.73;100.00;101251.84;5071548;28;20025;-72
2023/09/19 04:27:16;;;;;;;7.50;2.77;;;;;;;8.68;100.00;101214.25;5073635;28;20055;-71
2023/09/19 04:29:42;;;;;;;2.90;2.60;;;;;;;8.79;100.00;101224.72;5075289;28;20036;-70
2023/09/19 04:32:09;;;;;;;5.83;2.73;;;;;;;8.60;100.00;101191.03;5062538;28;20464;-70
2023/09/19 04:34:35;;;;;;;5.30;2.43;;;;;;;8.82;100.00;101221.78;5065164;28;20128;-74
2023/09/19 04:37:02;;;;;;;4.57;2.63;;;;;;;8.65;100.00;101209.19;5056871;28;20087;-72
2023/09/19 04:39:28;;;;;;;3.40;2.60;;;;;;;8.59;100.00;101188.50;5056033;28;20025;-71
2023/09/19 04:41:57;;;;;;;3.73;2.40;;;;;;;8.71;100.00;101187.41;5058190;28;20076;-71
2023/09/19 04:44:23;;;;;;;4.07;2.33;;;;;;;8.88;100.00;101199.13;5055523;28;20031;-72
2023/09/19 04:46:48;;;;;;;6.43;2.80;;;;;;;8.83;100.00;101191.59;5055717;28;20465;-71
2023/09/19 04:49:14;;;;;;;5.43;3.20;;;;;;;8.90;100.00;101192.69;5055672;28;20492;-72
2023/09/19 04:51:40;;;;;;;3.67;2.83;;;;;;;9.11;100.00;101184.56;5058523;28;20123;-69
2023/09/19 04:54:06;;;;;;;6.27;2.40;;;;;;;9.24;100.00;101187.75;5057611;28;20048;-66
2023/09/19 04:56:32;;;;;;;2.97;2.17;;;;;;;9.32;100.00;101173.75;5057441;28;20033;-70
2023/09/19 04:58:58;;;;;;;4.63;2.00;;;;;;;9.46;100.00;101193.72;5057642;28;20025;-69
2023/09/19 05:01:25;;;;;;;3.53;2.17;;;;;;;9.42;100.00;101184.34;5055642;28;20040;-69
2023/09/19 05:03:52;;;;;;;10.83;2.40;;;;;;;9.49;100.00;101194.25;5055409;28;20028;-75
2023/09/19 05:06:21;;;;;;;2.20;2.00;;;;;;;9.38;100.00;101173.16;5056109;28;20112;-69
2023/09/19 05:08:51;;;;;;;3.00;2.07;;;;;;;9.39;100.00;101174.84;5055109;28;20472;-69
2023/09/19 05:11:22;;;;;;;3.67;1.87;;;;;;;9.48;100.00;101168.66;5055246;28;20037;-70
2023/09/19 05:13:50;;;;;;;4.93;2.67;;;;;;;9.43;100.00;101139.00;5055296;28;20028;-72
2023/09/19 05:16:16;;;;;;;6.37;3.23;;;;;;;9.29;100.00;101107.59;5057782;28;20078;-70
2023/09/19 05:18:42;;;;;;;3.97;2.40;;;;;;;8.87;100.00;101033.63;5061040;28;20509;-73
2023/09/19 05:21:08;;;;;;;6.93;2.80;;;;;;;9.57;100.00;101149.19;5063090;28;20120;-74
2023/09/19 05:23:33;;;;;;;4.90;2.50;;;;;;;9.40;100.00;101118.03;5063993;28;20025;-73
2023/09/19 05:25:59;;;;;;;2.93;2.50;;;;;;;9.48;100.00;101127.94;5065375;28;20148;-72
2023/09/19 05:28:26;;;;;;;3.93;2.30;;;;;;;9.53;100.00;101130.97;5059102;28;20020;-71
2023/09/19 05:30:53;;;;;;;4.03;2.67;;;;;;;9.45;100.00;101117.59;5057538;28;20036;-70
2023/09/19 05:33:19;;;;;;;2.50;2.20;;;;;;;9.49;100.00;101119.81;5055290;28;20090;-72
2023/09/19 05:35:47;;;;;;;3.33;2.23;;;;;;;9.65;100.00;101118.34;5054609;28;20333;-71
2023/09/19 05:38:13;;;;;;;18.10;12.70;;;;;;;9.57;100.00;101088.03;5056521;28;20029;-73
2023/09/19 05:40:42;;;;;;;3.90;2.40;;;;;;;9.61;100.00;101102.69;5056947;28;20079;-69
2023/09/19 05:43:08;;;;;;;8.43;2.40;;;;;;;9.45;100.00;101065.25;5054716;28;20032;-71
2023/09/19 05:45:34;;;;;;;4.50;2.60;;;;;;;9.63;100.00;101099.88;5054756;28;20033;-73
2023/09/19 05:48:16;;;;;;;6.67;2.70;;;;;;;9.70;100.00;101110.75;5055283;28;20063;-70
2023/09/19 05:50:43;;;;;;;6.70;2.67;;;;;;;9.63;100.00;101100.72;5056593;28;20036;-71
2023/09/19 05:53:11;;;;;;;6.37;3.00;;;;;;;9.55;100.00;101071.38;5067111;28;20021;-72
2023/09/19 05:55:37;;;;;;;5.67;2.63;;;;;;;9.44;100.00;101055.63;5059068;28;20391;-71
2023/09/19 05:58:03;;;;;;;4.60;3.10;;;;;;;9.36;100.00;101033.41;5056531;28;20028;-74
2023/09/19 06:00:29;;;;;;;5.73;2.73;;;;;;;9.61;100.00;101067.28;5055026;28;20022;-73
2023/09/19 06:02:57;;;;;;;3.50;2.50;;;;;;;9.72;100.00;101080.38;5053578;28;20071;-71
2023/09/19 06:05:23;;;;;;;4.73;2.70;;;;;;;9.67;100.00;101057.88;5053507;28;20582;-72
2023/09/19 06:07:50;;;;;;;6.13;3.00;;;;;;;9.88;100.00;101077.91;5052185;28;20071;-74
2023/09/19 06:10:17;;;;;;;4.87;2.87;;;;;;;9.90;100.00;101073.25;5053304;28;20036;-72
2023/09/19 06:12:45;;;;;;;9.17;3.50;;;;;;;9.83;100.00;101053.56;5053508;28;20590;-71
2023/09/19 06:15:18;;;;;;;13.13;4.10;;;;;;;9.96;100.00;101066.50;5053406;28;20036;-72
2023/09/19 06:17:55;;;;;;;7.10;3.17;;;;;;;9.99;100.00;101058.22;5053421;28;20064;-71
2023/09/19 06:20:23;;;;;;;13.67;4.00;;;;;;;9.87;100.00;101027.50;5053291;28;20032;-71
2023/09/19 06:22:49;;;;;;;10.30;3.57;;;;;;;10.07;100.00;101042.31;5053184;28;20036;-73
2023/09/19 06:25:19;;;;;;;5.30;3.67;;;;;;;9.88;100.00;101007.91;5053382;28;20361;-72
2023/09/19 06:27:47;;;;;;;7.63;3.50;;;;;;;10.08;100.00;101028.00;5053293;28;20090;-72
2023/09/19 06:30:13;;;;;;;6.60;4.37;;;;;;;9.92;100.00;101003.94;5053074;28;20075;-72
2023/09/19 06:32:43;;;;;;;9.43;3.90;;;;;;;10.27;100.00;101035.03;5052683;28;20052;-71
2023/09/19 06:35:11;;;;;;;8.97;4.20;;;;;;;10.18;100.00;101018.16;5052150;28;20033;-70
2023/09/19 06:37:40;;;;;;;11.57;4.23;;;;;;;10.43;100.00;101039.66;5052879;28;20104;-72
2023/09/19 06:40:13;;;;;;;8.43;4.70;;;;;;;10.50;100.00;101036.22;5052423;28;20112;-72
2023/09/19 06:42:52;;;;;;;7.23;4.20;;;;;;;10.61;100.00;101031.63;5052869;28;20029;-71
2023/09/19 06:45:18;;;;;;;10.60;4.80;;;;;;;10.47;100.00;100990.44;5052312;28;20380;-72
2023/09/19 06:47:49;;;;;;;9.33;4.23;;;;;;;10.65;100.00;101007.19;5052434;28;20468;-73
2023/09/19 06:50:15;;;;;;;4.43;3.63;;;;;;;10.72;100.00;100991.44;5051278;28;20021;-73
2023/09/19 06:52:42;;;;;;;11.33;4.10;;;;;;;11.04;100.00;101018.25;5052891;28;20025;-71
2023/09/19 06:55:09;;;;;;;7.17;4.83;;;;;;;11.16;100.00;101000.13;5034687;28;20070;-75
2023/09/19 06:57:35;;;;;;;8.93;4.10;;;;;;;11.37;100.00;100981.88;5053063;28;20354;-75
2023/09/19 07:00:01;;;;;;;8.13;4.83;;;;;;;11.78;100.00;101011.34;5051166;28;20040;-74
2023/09/19 07:02:30;;;;;;;8.60;5.00;;;;;;;11.97;100.00;100984.34;5052309;28;20028;-75
2023/09/19 07:04:55;;;;;;;7.57;4.83;;;;;;;12.13;100.00;100988.84;5052375;28;20078;-75
2023/09/19 07:07:21;;;;;;;9.97;4.53;;;;;;;11.93;100.00;100961.66;5051243;28;20525;-77
2023/09/19 07:09:48;;;;;;;14.00;5.50;;;;;;;11.93;100.00;100967.00;5052490;28;20041;-76
2023/09/19 07:12:14;;;;;;;14.02;5.20;;;;;;;11.88;100.00;100972.00;5051658;28;20036;-76
2023/09/19 07:14:40;;;;;;;16.10;4.60;;;;;;;11.87;100.00;100967.66;5052196;28;20365;-76
2023/09/19 07:17:06;;;;;;;10.00;5.00;;;;;;;11.82;100.00;100961.97;5052333;28;20021;-78
2023/09/19 07:19:31;;;;;;;10.47;4.93;;;;;;;11.91;100.00;100963.66;5052144;28;20024;-77
2023/09/19 07:21:59;;;;;;;6.73;4.20;;;;;;;11.97;100.00;100954.97;5050892;28;20021;-76
2023/09/19 07:24:26;;;;;;;12.50;5.03;;;;;;;11.98;100.00;100947.81;5052005;28;20035;-79
2023/09/19 07:26:52;;;;;;;7.67;4.63;;;;;;;12.13;100.00;100972.81;5052264;28;20029;-74
2023/09/19 07:29:17;;;;;;;7.70;4.93;;;;;;;12.18;100.00;100975.00;5051008;28;20479;-71
2023/09/19 07:31:47;;;;;;;13.47;5.43;;;;;;;11.87;100.00;100898.28;5051994;28;20045;-74
2023/09/19 07:34:13;;;;;;;9.30;5.23;;;;;;;12.35;100.00;100949.94;5051656;28;20492;-77
2023/09/19 07:36:40;;;;;;;9.23;4.87;;;;;;;12.57;100.00;100957.25;5052216;28;20021;-73
2023/09/19 07:39:06;;;;;;;9.50;6.73;;;;;;;12.77;100.00;100946.19;5053290;28;20460;-72
2023/09/19 07:41:34;;;;;;;9.17;4.83;;;;;;;12.98;100.00;100952.59;5052544;28;20037;-74
2023/09/19 07:43:59;;;;;;;14.60;5.43;;;;;;;13.14;100.00;100946.34;5051348;28;20746;-72
2023/09/19 07:46:26;;;;;;;13.47;5.67;;;;;;;13.24;100.00;100936.28;5050354;28;20060;-71
2023/09/19 07:48:52;;;;;;;13.77;5.83;;;;;;;13.36;100.00;100927.88;5051020;28;20021;-73
2023/09/19 07:51:17;;;;;;;7.07;5.70;;;;;;;13.32;100.00;100932.75;5051739;28;20091;-76
2023/09/19 07:53:43;;;;;;;11.40;6.13;;;;;;;13.14;100.00;100926.78;5052015;28;20036;-73
2023/09/19 07:56:10;;;;;;;13.47;6.10;;;;;;;12.90;100.00;100914.38;5051887;28;20059;-72
2023/09/19 07:58:38;;;;;;;13.17;6.13;;;;;;;12.97;100.00;100923.34;5051911;28;20025;-73
2023/09/19 08:01:07;;;;;;;;;;;;;;;13.06;100.00;100916.16;5052213;28;20040;-73
2023/09/19 08:03:34;;;;;;;8.70;5.33;;;;;;;13.21;100.00;100917.09;5051697;28;19908;-74
2023/09/19 08:06:00;;;;;;;12.40;6.50;;;;;;;13.40;100.00;100907.78;5051647;28;20033;-72
2023/09/19 08:08:27;;;;;;;9.57;5.57;;;;;;;13.56;100.00;100903.13;5050637;28;20036;-74
2023/09/19 08:10:55;;;;;;;13.03;5.70;;;;;;;13.71;100.00;100895.19;5051884;28;20043;-72
2023/09/19 08:13:22;;;;;;;10.80;5.95;;;;;;;13.85;100.00;100886.34;5052215;28;20024;-76
2023/09/19 08:15:47;;;;;;;8.33;5.40;;;;;;;13.92;100.00;100870.41;5052618;28;20108;-70
2023/09/19 08:18:15;;;;;;;8.33;6.00;;;;;;;14.25;100.00;100892.34;5051873;28;20028;-71
2023/09/19 08:20:42;;;;;;;8.33;5.60;;;;;;;14.25;100.00;100876.28;5050594;28;20129;-75
2023/09/19 08:23:08;;;;;;;20.93;7.03;;;;;;;14.27;100.00;100888.47;5050442;28;20036;-73
2023/09/19 08:25:34;;;;;;;6.63;5.43;;;;;;;14.27;100.00;100868.88;5050495;28;20429;-72
2023/09/19 08:28:01;;;;;;;10.27;6.77;;;;;;;14.15;100.00;100832.84;5055187;28;20364;-75
2023/09/19 08:30:30;;;;;;;11.20;6.20;;;;;;;14.45;100.00;100872.03;5055027;28;20033;-74
2023/09/19 08:33:04;;;;;;;8.07;6.30;;;;;;;14.52;100.00;100862.28;5055089;28;20128;-75
2023/09/19 08:35:30;;;;;;;11.73;6.57;;;;;;;14.48;100.00;100844.91;5055018;28;20043;-74
2023/09/19 08:37:56;;;;;;;10.40;6.63;;;;;;;14.80;99.61;100878.50;5055084;28;20021;-73
2023/09/19 08:40:22;;;;;;;8.90;5.63;;;;;;;14.69;100.00;100862.06;5055293;28;20033;-75
2023/09/19 08:42:53;;;;;;;12.13;6.30;;;;;;;14.76;100.00;100873.72;5055025;28;20017;-74
2023/09/19 08:45:19;;;;;;;9.03;5.43;;;;;;;14.71;100.00;100851.97;5055090;28;20422;-74
2023/09/19 08:47:50;;;;;;;7.97;5.73;;;;;;;14.76;100.00;100854.94;5054899;28;20095;-76
2023/09/19 08:50:22;;;;;;;11.43;6.00;;;;;;;14.92;100.00;100852.03;5054864;28;20120;-75
2023/09/19 08:52:53;;;;;;;10.70;6.53;;;;;;;15.09;100.00;100842.75;5055173;28;20028;-74
2023/09/19 08:55:22;;;;;;;6.70;5.07;;;;;;;15.32;99.48;100830.97;5055560;28;20029;-74
2023/09/19 08:57:49;;;;;;;9.37;5.60;;;;;;;15.43;98.17;100811.69;5055342;28;20403;-73
2023/09/19 09:00:20;;;;;;;11.05;5.22;;;;;;;15.79;97.88;100827.72;5055212;28;20029;-72
2023/09/19 09:02:47;;;;;;;7.80;5.57;;;;;;;16.10;96.57;100816.56;5054998;28;20098;-72
2023/09/19 09:05:14;;;;;;;9.37;5.10;;;;;;;16.22;94.52;100796.19;5054370;28;20181;-75
2023/09/19 09:07:40;;;;;;;8.13;6.30;;;;;;;16.27;93.29;100793.75;5054652;28;20067;-72
2023/09/19 09:10:07;;;;;;;7.30;6.13;;;;;;;16.10;93.55;100776.28;5054486;28;20060;-76
2023/09/19 09:12:36;;;;;;;13.00;6.87;;;;;;;16.43;93.85;100793.38;5054462;28;20027;-74
2023/09/19 09:15:03;;;;;;;7.80;6.43;;;;;;;16.50;92.60;100777.31;5054644;28;20532;-74
2023/09/19 09:17:31;;;;;;;9.43;6.70;;;;;;;16.68;92.40;100774.06;5054433;28;20028;-73
2023/09/19 09:19:57;;;;;;;15.97;7.03;;;;;;;16.64;91.86;100725.22;5054387;28;20124;-75
2023/09/19 09:22:23;;;;;;;13.70;6.70;;;;;;;16.93;91.41;100734.81;5054526;28;20108;-76
2023/09/19 09:24:53;;;;;;;9.60;6.63;;;;;;;17.16;92.09;100755.16;5055285;28;20025;-78
2023/09/19 09:27:20;;;;;;;10.63;6.83;;;;;;;17.13;92.47;100745.63;5054280;28;20111;-75
2023/09/19 09:29:51;;;;;;;9.70;6.70;;;;;;;17.04;93.64;100728.00;5054221;28;20094;-77
2023/09/19 09:32:22;;;;;;;14.67;6.87;;;;;;;16.87;94.38;100729.44;5054099;28;20056;-75
2023/09/19 09:34:59;;;;;;;8.77;7.33;;;;;;;16.71;95.16;100736.03;5054435;28;20047;-78
2023/09/19 09:37:30;;;;;;;10.20;6.67;;;;;;;16.51;96.89;100722.50;5054088;28;20025;-77
2023/09/19 09:40:12;;;;;;;12.63;7.00;;;;;;;16.55;98.63;100725.63;5054958;28;20033;-76
2023/09/19 09:42:41;;;;;;;13.77;7.63;;;;;;;16.37;99.11;100696.59;5055828;28;20112;-77
2023/09/19 09:48:03;;;;;;;10.00;7.00;;;;;;;16.49;99.98;100713.00;5054103;28;20033;-77
2023/09/19 09:53:07;;;;;;;11.10;7.20;;;;;;;16.62;100.00;100704.94;5055166;28;20063;-76
2023/09/19 09:56:05;;;;;;;13.63;6.60;;;;;;;16.70;100.00;100702.09;5066821;28;20029;-77
2023/09/19 09:58:49;;;;;;;9.87;7.20;;;;;;;16.79;100.00;100706.28;5076792;28;20029;-76
2023/09/19 10:01:15;;;;;;;9.47;6.40;;;;;;;16.75;100.00;100688.84;5063241;28;20025;-76
2023/09/19 10:03:53;;;;;;;8.67;6.97;;;;;;;16.95;100.00;100700.47;5058288;28;20036;-78
2023/09/19 10:09:20;;;;;;;10.27;6.70;;;;;;;17.20;100.00;100692.63;5072477;28;20055;-76
2023/09/19 10:12:03;;;;;;;11.57;7.10;;;;;;;17.23;100.00;100691.38;5069403;28;20035;-72
2023/09/19 10:14:34;;;;;;;13.30;6.63;;;;;;;17.21;100.00;100688.06;5068244;28;20021;-74
2023/09/19 10:17:04;;;;;;;8.00;6.80;;;;;;;17.08;100.00;100656.63;5066971;28;20100;-74
2023/09/19 10:19:36;;;;;;;14.87;6.37;;;;;;;17.24;100.00;100661.56;5060970;28;20021;-73
2023/09/19 10:22:04;;;;;;;10.37;7.60;;;;;;;17.38;100.00;100654.31;5064265;28;20035;-76
2023/09/19 10:24:31;;;;;;;10.27;7.00;;;;;;;17.45;100.00;100657.00;5051911;28;20079;-74
2023/09/19 10:26:59;;;;;;;11.00;7.73;;;;;;;17.41;100.00;100636.91;5055657;28;20491;-77
2023/09/19 10:29:31;;;;;;;12.43;7.25;;;;;;;17.72;100.00;100674.78;5055169;28;20041;-77
2023/09/19 10:31:58;;;;;;;8.83;7.07;;;;;;;17.69;100.00;100655.53;5054414;28;20045;-76
2023/09/19 10:34:25;;;;;;;17.83;10.03;;;;;;;17.79;100.00;100647.81;5053951;28;20033;-76
2023/09/19 10:36:52;;;;;;;13.57;7.70;;;;;;;17.93;100.00;100652.13;5053024;28;20041;-77
2023/09/19 10:39:19;;;;;;;13.03;7.30;;;;;;;17.95;100.00;100633.88;5052582;28;20032;-74
2023/09/19 10:41:53;;;;;;;7.80;6.73;;;;;;;18.09;100.00;100637.31;5052941;28;20468;-74
2023/09/19 10:44:25;;;;;;;9.03;7.07;;;;;;;17.67;99.60;100558.78;5052610;28;20033;-76
2023/09/19 10:46:55;;;;;;;9.63;7.53;;;;;;;18.26;100.00;100627.72;5052707;28;20388;-78
2023/09/19 10:49:21;;;;;;;11.47;7.37;;;;;;;18.34;99.36;100629.31;5056036;28;20025;-75
2023/09/19 10:51:49;;;;;;;13.17;7.30;;;;;;;18.33;99.34;100608.78;5060471;28;20430;-72
2023/09/19 10:54:19;;;;;;;8.90;7.55;;;;;;;18.44;99.74;100611.59;5056120;28;20024;-74
2023/09/19 10:56:52;;;;;;;10.67;7.47;;;;;;;18.45;99.44;100607.88;5053796;28;20036;-78
2023/09/19 10:59:20;;;;;;;11.18;7.85;;;;;;;18.46;100.00;100579.03;5039897;28;20051;-76
2023/09/19 11:01:56;;;;;;;9.48;8.00;;;;;;;18.63;100.00;100617.94;5066603;28;20064;-76
2023/09/19 11:04:24;;;;;;;12.18;8.20;;;;;;;18.68;99.61;100603.81;5076531;28;20056;-73
2023/09/19 11:07:15;;;;;;;10.35;8.23;;;;;;;18.60;100.00;100596.78;5074872;28;20084;-73
2023/09/19 11:09:53;;;;;;;11.00;8.50;;;;;;;18.49;100.00;100594.78;5074551;28;20029;-74
2023/09/19 11:12:31;;;;;;;12.00;8.48;;;;;;;18.48;100.00;100593.13;5074737;28;20032;-75
2023/09/19 11:14:58;;;;;;;14.90;7.53;;;;;;;18.45;100.00;100591.69;5075102;28;20033;-76
2023/09/19 11:17:31;;;;;;;12.13;8.68;;;;;;;18.60;100.00;100583.31;5074646;28;20060;-74
2023/09/19 11:22:49;;;;;;;9.95;7.32;;;;;;;19.00;100.00;100575.72;5066842;28;20021;-75
2023/09/19 11:25:30;;;;;;;9.68;8.25;;;;;;;19.23;99.47;100572.38;5051978;28;20461;-75
2023/09/19 11:28:12;;;;;;;12.82;8.55;;;;;;;19.38;98.39;100577.41;5052746;28;20032;-75
2023/09/19 11:30:40;;;;;;;11.15;8.52;;;;;;;19.39;98.22;100552.06;5032319;28;20412;-75
2023/09/19 11:33:23;;;;;;;15.47;8.47;;;;;;;19.67;97.29;100570.47;5032655;28;20045;-76
2023/09/19 11:36:14;;;;;;;12.85;8.52;;;;;;;19.46;96.88;100521.22;5031515;28;20034;-75
2023/09/19 11:38:46;;;;;;;14.35;8.65;;;;;;;19.70;96.87;100562.72;5032869;28;20085;-74